createdAt,value
2022-08-17T00:02:25.960Z,100.00
2022-08-17T00:04:54.962Z,100.00
2022-08-17T00:07:22.333Z,100.00
2022-08-17T00:09:49.039Z,100.00
2022-08-17T00:12:42.663Z,100.00
2022-08-17T00:15:02.992Z,100.00
2022-08-17T00:17:29.743Z,100.00
2022-08-17T00:19:56.401Z,100.00
2022-08-17T00:22:35.208Z,100.00
2022-08-17T00:25:12.129Z,100.00
2022-08-17T00:27:39.445Z,100.00
2022-08-17T00:30:09.786Z,100.00
2022-08-17T00:33:22.741Z,100.00
2022-08-17T00:35:33.961Z,100.00
2022-08-17T00:38:00.688Z,100.00
2022-08-17T00:40:27.610Z,100.00
2022-08-17T00:43:23.609Z,100.00
2022-08-17T00:45:50.824Z,100.00
2022-08-17T00:48:29.340Z,100.00
2022-08-17T00:51:32.594Z,100.00
2022-08-17T00:54:24.016Z,100.00
2022-08-17T00:57:04.603Z,100.00
2022-08-17T00:59:37.669Z,100.00
2022-08-17T01:02:06.477Z,100.00
2022-08-17T01:04:33.627Z,100.00
2022-08-17T01:07:02.166Z,100.00
2022-08-17T01:09:29.089Z,100.00
2022-08-17T01:11:55.967Z,100.00
2022-08-17T01:14:24.924Z,100.00
2022-08-17T01:16:54.266Z,100.00
2022-08-17T01:19:28.853Z,100.00
2022-08-17T01:22:10.806Z,100.00
2022-08-17T01:24:40.754Z,100.00
2022-08-17T01:27:10.264Z,100.00
2022-08-17T01:29:39.688Z,100.00
2022-08-17T01:32:08.369Z,100.00
2022-08-17T01:34:42.726Z,100.00
2022-08-17T01:37:12.731Z,100.00
2022-08-17T01:39:45.511Z,100.00
2022-08-17T01:42:28.410Z,100.00
2022-08-17T01:45:04.479Z,100.00
2022-08-17T01:47:31.413Z,100.00
2022-08-17T01:49:58.126Z,100.00
2022-08-17T01:52:24.940Z,100.00
2022-08-17T01:54:52.880Z,100.00
2022-08-17T01:57:22.383Z,100.00
2022-08-17T01:59:49.169Z,100.00
2022-08-17T02:02:31.231Z,100.00
2022-08-17T02:04:58.465Z,100.00
2022-08-17T02:07:26.929Z,100.00
2022-08-17T02:09:53.958Z,100.00
2022-08-17T02:12:39.299Z,100.00
2022-08-17T02:15:08.864Z,100.00
2022-08-17T02:17:35.992Z,100.00
2022-08-17T02:20:04.794Z,100.00
2022-08-17T02:22:31.546Z,100.00
2022-08-17T02:25:02.185Z,100.00
2022-08-17T02:27:29.979Z,100.00
2022-08-17T02:29:57.088Z,100.00
2022-08-17T02:32:28.185Z,100.00
2022-08-17T02:34:56.998Z,100.00
2022-08-17T02:37:24.533Z,100.00
2022-08-17T02:39:51.309Z,100.00
2022-08-17T02:42:18.527Z,100.00
2022-08-17T02:44:45.273Z,100.00
2022-08-17T02:47:12.829Z,100.00
2022-08-17T02:49:39.513Z,100.00
2022-08-17T02:52:07.526Z,100.00
2022-08-17T02:54:39.196Z,100.00
2022-08-17T02:57:08.874Z,100.00
2022-08-17T02:59:35.629Z,100.00
2022-08-17T03:02:08.478Z,100.00
2022-08-17T03:04:38.606Z,100.00
2022-08-17T03:07:05.823Z,100.00
2022-08-17T03:09:33.077Z,100.00
2022-08-17T03:12:12.911Z,100.00
2022-08-17T03:14:43.860Z,100.00
2022-08-17T03:17:12.813Z,100.00
2022-08-17T03:19:47.812Z,100.00
2022-08-17T03:22:37.357Z,100.00
2022-08-17T03:25:01.271Z,100.00
2022-08-17T03:27:28.901Z,100.00
2022-08-17T03:29:55.570Z,100.00
2022-08-17T03:32:22.347Z,100.00
2022-08-17T03:34:49.014Z,100.00
2022-08-17T03:37:15.908Z,100.00
2022-08-17T03:39:43.067Z,100.00
2022-08-17T03:42:32.583Z,100.00
2022-08-17T03:45:04.824Z,100.00
2022-08-17T03:47:50.369Z,100.00
2022-08-17T03:50:36.908Z,100.00
2022-08-17T03:53:29.274Z,100.00
2022-08-17T03:56:21.641Z,100.00
2022-08-17T03:58:48.422Z,100.00
2022-08-17T04:01:15.494Z,100.00
2022-08-17T04:03:42.166Z,100.00
2022-08-17T04:06:09.060Z,100.00
2022-08-17T04:08:35.814Z,100.00
2022-08-17T04:11:05.676Z,100.00
2022-08-17T04:13:32.443Z,100.00
2022-08-17T04:15:59.986Z,100.00
2022-08-17T04:18:26.758Z,100.00
2022-08-17T04:20:53.721Z,100.00
2022-08-17T04:23:21.246Z,100.00
2022-08-17T04:25:50.280Z,100.00
2022-08-17T04:28:18.988Z,100.00
2022-08-17T04:30:47.480Z,100.00
2022-08-17T04:33:17.711Z,100.00
2022-08-17T04:35:58.259Z,100.00
2022-08-17T04:38:30.085Z,100.00
2022-08-17T04:41:17.594Z,100.00
2022-08-17T04:43:48.354Z,100.00
2022-08-17T04:46:19.953Z,100.00
2022-08-17T04:48:50.556Z,100.00
2022-08-17T04:51:22.794Z,100.00
2022-08-17T04:53:55.216Z,100.00
2022-08-17T04:56:24.961Z,100.00
2022-08-17T04:58:54.417Z,100.00
2022-08-17T05:01:23.850Z,100.00
2022-08-17T05:03:59.194Z,100.00
2022-08-17T05:06:29.960Z,100.00
2022-08-17T05:08:58.611Z,100.00
2022-08-17T05:11:28.041Z,100.00
2022-08-17T05:13:56.611Z,100.00
2022-08-17T05:16:24.987Z,100.00
2022-08-17T05:18:52.709Z,100.00
2022-08-17T05:21:21.104Z,92.93
2022-08-17T05:23:50.332Z,86.02
2022-08-17T05:26:26.892Z,82.12
2022-08-17T05:28:58.418Z,77.09
2022-08-17T05:31:29.519Z,75.76
2022-08-17T05:33:56.327Z,72.73
2022-08-17T05:36:42.780Z,66.35
2022-08-17T05:39:15.920Z,61.66
2022-08-17T05:41:47.955Z,57.89
2022-08-17T05:44:16.545Z,58.21
2022-08-17T05:46:49.345Z,56.43
2022-08-17T05:49:23.378Z,53.97
2022-08-17T05:51:53.087Z,54.26
2022-08-17T05:54:57.025Z,50.14
2022-08-17T05:57:44.793Z,51.26
2022-08-17T06:00:26.253Z,51.07
2022-08-17T06:03:16.174Z,50.62
2022-08-17T06:05:42.882Z,48.26
2022-08-17T06:08:19.356Z,47.89
2022-08-17T06:11:01.274Z,44.67
2022-08-17T06:13:40.936Z,42.86
2022-08-17T06:16:33.213Z,44.14
2022-08-17T06:19:06.393Z,43.69
2022-08-17T06:21:42.685Z,42.85
2022-08-17T06:24:26.357Z,41.02
2022-08-17T06:26:58.244Z,42.08
2022-08-17T06:29:43.983Z,40.69
2022-08-17T06:32:12.979Z,40.16
2022-08-17T06:34:41.857Z,40.95
2022-08-17T06:37:21.829Z,39.83
2022-08-17T06:39:57.671Z,39.58
2022-08-17T06:43:05.616Z,38.61
2022-08-17T06:45:49.387Z,39.39
2022-08-17T06:48:24.511Z,38.00
2022-08-17T06:51:00.565Z,39.13
2022-08-17T06:53:41.471Z,39.51
2022-08-17T06:56:11.702Z,38.76
2022-08-17T06:58:42.001Z,41.05
2022-08-17T07:01:23.337Z,40.79
2022-08-17T07:04:14.362Z,44.08
2022-08-17T07:06:49.299Z,41.22
2022-08-17T07:09:23.459Z,41.80
2022-08-17T07:11:59.759Z,45.59
2022-08-17T07:14:48.920Z,48.46
2022-08-17T07:17:18.448Z,50.73
2022-08-17T07:19:51.786Z,45.44
2022-08-17T07:22:30.799Z,43.87
2022-08-17T07:25:20.898Z,45.08
2022-08-17T07:27:51.439Z,48.69
2022-08-17T07:30:44.682Z,52.85
2022-08-17T07:33:23.931Z,54.40
2022-08-17T07:35:51.051Z,51.66
2022-08-17T07:38:32.189Z,56.91
2022-08-17T07:41:03.862Z,63.00
2022-08-17T07:43:52.895Z,60.50
2022-08-17T07:47:06.115Z,67.78
2022-08-17T07:49:34.534Z,62.89
2022-08-17T07:52:48.422Z,62.88
2022-08-17T07:54:52.558Z,53.08
2022-08-17T07:57:30.476Z,52.71
2022-08-17T08:00:01.269Z,49.28
2022-08-17T08:02:38.738Z,45.57
2022-08-17T08:05:30.748Z,41.53
2022-08-17T08:08:26.579Z,43.83
2022-08-17T08:11:11.323Z,38.47
2022-08-17T08:13:44.198Z,39.01
2022-08-17T08:16:34.364Z,32.91
2022-08-17T08:19:02.185Z,34.32
2022-08-17T08:21:54.937Z,33.24
2022-08-17T08:24:46.533Z,30.28
2022-08-17T08:27:49.649Z,31.98
2022-08-17T08:30:21.369Z,32.60
2022-08-17T08:33:15.329Z,35.19
2022-08-17T08:35:55.773Z,38.13
2022-08-17T08:38:39.205Z,41.21
2022-08-17T08:41:37.172Z,40.68
2022-08-17T08:44:13.438Z,43.46
2022-08-17T08:46:46.595Z,41.34
2022-08-17T08:50:01.163Z,46.88
2022-08-17T08:53:02.416Z,46.08
2022-08-17T08:55:56.012Z,47.04
2022-08-17T08:58:56.177Z,53.98
2022-08-17T09:01:25.537Z,51.18
2022-08-17T09:04:24.288Z,51.48
2022-08-17T09:07:09.326Z,57.31
2022-08-17T09:09:35.949Z,62.62
2022-08-17T09:12:20.045Z,50.81
2022-08-17T09:15:12.298Z,57.74
2022-08-17T09:18:59.018Z,45.78
2022-08-17T09:21:01.691Z,54.46
2022-08-17T09:23:34.308Z,55.38
2022-08-17T09:26:16.292Z,52.83
2022-08-17T09:28:55.944Z,51.54
2022-08-17T09:31:48.929Z,50.98
2022-08-17T09:34:31.885Z,49.39
2022-08-17T09:37:15.154Z,55.05
2022-08-17T09:40:09.668Z,55.01
2022-08-17T09:42:46.945Z,59.02
2022-08-17T09:45:40.501Z,58.60
2022-08-17T09:48:19.668Z,63.63
2022-08-17T09:51:04.614Z,60.53
2022-08-17T09:53:34.004Z,65.05
2022-08-17T09:56:09.092Z,84.91
2022-08-17T09:58:44.767Z,62.12
2022-08-17T10:01:36.821Z,71.60
2022-08-17T10:04:14.253Z,60.82
2022-08-17T10:07:07.183Z,97.89
2022-08-17T10:09:55.748Z,100.00
2022-08-17T10:12:47.183Z,95.91
2022-08-17T10:15:14.107Z,100.00
2022-08-17T10:18:12.356Z,100.00
2022-08-17T10:20:52.387Z,100.00
2022-08-17T10:23:53.503Z,100.00
2022-08-17T10:26:25.396Z,100.00
2022-08-17T10:28:59.434Z,91.79
2022-08-17T10:31:35.049Z,83.75
2022-08-17T10:34:21.075Z,88.11
2022-08-17T10:37:09.365Z,69.96
2022-08-17T10:40:07.336Z,68.25
2022-08-17T10:42:46.970Z,49.50
2022-08-17T10:45:26.215Z,56.34
2022-08-17T10:48:06.832Z,49.72
2022-08-17T10:51:12.224Z,56.63
2022-08-17T10:53:42.543Z,54.14
2022-08-17T10:56:12.386Z,47.01
2022-08-17T10:59:01.093Z,43.61
2022-08-17T11:01:38.007Z,47.71
2022-08-17T11:04:49.015Z,48.01
2022-08-17T11:07:54.341Z,43.78
2022-08-17T11:10:43.266Z,49.16
2022-08-17T11:13:30.332Z,44.83
2022-08-17T11:16:03.562Z,46.07
2022-08-17T11:19:08.664Z,42.29
2022-08-17T11:22:11.939Z,44.22
2022-08-17T11:24:48.349Z,43.72
2022-08-17T11:27:29.889Z,45.47
2022-08-17T11:30:09.134Z,49.27
2022-08-17T11:32:52.223Z,45.49
2022-08-17T11:35:21.542Z,45.08
2022-08-17T11:38:03.224Z,45.98
2022-08-17T11:40:41.069Z,50.47
2022-08-17T11:43:45.844Z,48.18
2022-08-17T11:46:56.136Z,44.05
2022-08-17T11:50:09.966Z,46.71
2022-08-17T11:52:46.072Z,43.08
2022-08-17T11:55:36.342Z,40.67
2022-08-17T11:58:26.558Z,41.96
2022-08-17T12:00:57.785Z,42.55
2022-08-17T12:03:33.527Z,41.44
2022-08-17T12:06:21.491Z,38.44
2022-08-17T12:08:59.803Z,40.17
2022-08-17T12:11:55.430Z,40.01
2022-08-17T12:14:51.385Z,39.38
2022-08-17T12:17:29.588Z,42.12
2022-08-17T12:20:23.162Z,43.85
2022-08-17T12:23:01.431Z,41.98
2022-08-17T12:25:35.769Z,44.62
2022-08-17T12:28:05.962Z,48.37
2022-08-17T12:30:37.943Z,47.20
2022-08-17T12:33:25.477Z,50.19
2022-08-17T12:36:06.619Z,45.20
2022-08-17T12:38:36.907Z,47.66
2022-08-17T12:41:25.272Z,50.17
2022-08-17T12:44:05.782Z,42.70
2022-08-17T12:46:48.412Z,52.22
2022-08-17T12:49:39.849Z,58.01
2022-08-17T12:52:38.555Z,47.96
2022-08-17T12:55:25.317Z,48.56
2022-08-17T12:57:58.547Z,49.54
2022-08-17T13:00:41.479Z,50.62
2022-08-17T13:03:22.148Z,51.50
2022-08-17T13:06:03.090Z,53.34
2022-08-17T13:08:43.794Z,54.69
2022-08-17T13:11:19.147Z,49.22
2022-08-17T13:13:56.401Z,57.09
2022-08-17T13:16:26.589Z,56.99
2022-08-17T13:19:09.156Z,48.24
2022-08-17T13:21:38.026Z,45.75
2022-08-17T13:24:10.594Z,47.06
2022-08-17T13:26:41.987Z,46.99
2022-08-17T13:29:24.029Z,47.57
2022-08-17T13:32:13.000Z,49.12
2022-08-17T13:35:07.802Z,50.41
2022-08-17T13:37:36.628Z,56.67
2022-08-17T13:40:09.420Z,59.45
2022-08-17T13:42:50.425Z,52.62
2022-08-17T13:45:36.140Z,55.71
2022-08-17T13:48:11.820Z,55.53
2022-08-17T13:50:59.900Z,54.25
2022-08-17T13:53:32.986Z,57.22
2022-08-17T13:56:33.279Z,50.73
2022-08-17T13:59:09.066Z,53.30
2022-08-17T14:01:37.761Z,50.70
2022-08-17T14:04:08.789Z,50.06
2022-08-17T14:07:12.078Z,47.58
2022-08-17T14:09:56.599Z,46.51
2022-08-17T14:12:26.041Z,49.68
2022-08-17T14:14:55.056Z,46.70
2022-08-17T14:17:23.025Z,44.82
2022-08-17T14:19:51.231Z,43.92
2022-08-17T14:22:28.596Z,45.45
2022-08-17T14:24:58.173Z,46.26
2022-08-17T14:27:29.060Z,47.35
2022-08-17T14:29:58.013Z,46.57
2022-08-17T14:32:31.153Z,46.45
2022-08-17T14:34:59.664Z,46.87
2022-08-17T14:37:28.927Z,58.40
2022-08-17T14:39:57.833Z,59.29
2022-08-17T14:42:28.847Z,66.85
2022-08-17T14:44:56.559Z,66.45
2022-08-17T14:47:23.630Z,74.52
2022-08-17T14:49:50.483Z,76.39
2022-08-17T14:52:23.059Z,79.58
2022-08-17T14:54:54.676Z,79.63
2022-08-17T14:57:33.546Z,76.70
2022-08-17T15:00:01.669Z,76.10
2022-08-17T15:02:30.702Z,85.41
2022-08-17T15:05:02.961Z,90.05
2022-08-17T15:07:30.397Z,90.76
2022-08-17T15:09:58.683Z,89.92
2022-08-17T15:12:32.770Z,89.09
2022-08-17T15:15:04.726Z,88.18
2022-08-17T15:17:45.234Z,81.49
2022-08-17T15:20:22.176Z,93.80
2022-08-17T15:22:59.209Z,86.89
2022-08-17T15:25:27.913Z,89.17
2022-08-17T15:27:56.166Z,89.68
2022-08-17T15:30:23.781Z,87.62
2022-08-17T15:32:54.388Z,100.00
2022-08-17T15:35:27.244Z,100.00
2022-08-17T15:38:11.062Z,100.00
2022-08-17T15:40:47.251Z,84.46
2022-08-17T15:43:27.341Z,100.00
2022-08-17T15:46:12.473Z,88.60
2022-08-17T15:48:47.417Z,87.53
2022-08-17T15:51:25.335Z,93.78
2022-08-17T15:53:55.596Z,88.65
2022-08-17T15:56:23.161Z,91.71
2022-08-17T15:58:51.060Z,100.00
2022-08-17T16:02:15.425Z,89.19
2022-08-17T16:04:26.939Z,100.00
2022-08-17T16:06:58.175Z,86.40
2022-08-17T16:09:24.980Z,90.58
2022-08-17T16:11:55.120Z,98.39
2022-08-17T16:14:22.714Z,84.17
2022-08-17T16:16:51.008Z,98.51
2022-08-17T16:19:17.738Z,100.00
2022-08-17T16:21:44.420Z,100.00
2022-08-17T16:24:13.395Z,100.00
2022-08-17T16:26:42.110Z,100.00
2022-08-17T16:29:09.116Z,100.00
2022-08-17T16:31:37.694Z,100.00
2022-08-17T16:34:17.388Z,100.00
2022-08-17T16:36:55.385Z,100.00
2022-08-17T16:39:27.874Z,100.00
2022-08-17T16:41:56.198Z,100.00
2022-08-17T16:44:23.292Z,100.00
2022-08-17T16:46:50.427Z,100.00
2022-08-17T16:49:35.921Z,100.00
2022-08-17T16:52:07.075Z,100.00
2022-08-17T16:54:35.477Z,100.00
2022-08-17T16:57:05.450Z,100.00
2022-08-17T16:59:40.298Z,100.00
2022-08-17T17:02:11.809Z,100.00
2022-08-17T17:05:07.357Z,100.00
2022-08-17T17:07:38.173Z,100.00
2022-08-17T17:10:11.728Z,100.00
2022-08-17T17:13:01.130Z,100.00
2022-08-17T17:15:30.917Z,100.00
2022-08-17T17:18:06.909Z,100.00
2022-08-17T17:20:43.199Z,100.00
2022-08-17T17:23:34.008Z,100.00
2022-08-17T17:26:22.331Z,100.00
2022-08-17T17:29:08.107Z,100.00
2022-08-17T17:32:09.575Z,100.00
2022-08-17T17:34:39.025Z,100.00
2022-08-17T17:37:12.916Z,100.00
2022-08-17T17:40:06.299Z,100.00
2022-08-17T17:42:34.679Z,100.00
2022-08-17T17:45:23.423Z,100.00
2022-08-17T17:47:50.787Z,100.00
2022-08-17T17:50:20.581Z,100.00
2022-08-17T17:53:02.194Z,100.00
2022-08-17T17:55:39.072Z,100.00
2022-08-17T17:58:27.183Z,100.00
2022-08-17T18:01:07.509Z,100.00
2022-08-17T18:04:11.204Z,100.00
2022-08-17T18:07:22.975Z,100.00
2022-08-17T18:10:19.558Z,100.00
2022-08-17T18:13:31.206Z,100.00
2022-08-17T18:16:03.650Z,100.00
2022-08-17T18:18:38.159Z,100.00
2022-08-17T18:21:15.657Z,100.00
2022-08-17T18:23:58.036Z,100.00
2022-08-17T18:26:33.749Z,100.00
2022-08-17T18:29:03.425Z,100.00
2022-08-17T18:31:30.277Z,100.00
2022-08-17T18:37:37.054Z,100.00
2022-08-17T18:40:22.560Z,100.00
2022-08-17T18:42:55.007Z,100.00
2022-08-17T18:45:35.902Z,100.00
2022-08-17T18:48:03.122Z,100.00
2022-08-17T18:50:41.246Z,100.00
2022-08-17T18:53:33.520Z,100.00
2022-08-17T18:56:18.008Z,100.00
2022-08-17T18:58:53.902Z,100.00
2022-08-17T19:01:47.173Z,100.00
2022-08-17T19:04:34.622Z,100.00
2022-08-17T19:07:23.873Z,100.00
2022-08-17T19:09:58.858Z,100.00
2022-08-17T19:12:46.059Z,100.00
2022-08-17T19:15:17.738Z,100.00
2022-08-17T19:17:52.277Z,100.00
2022-08-17T19:20:53.882Z,100.00
2022-08-17T19:23:54.207Z,100.00
2022-08-17T19:26:54.283Z,100.00
2022-08-17T19:29:41.556Z,100.00
2022-08-17T19:32:10.559Z,100.00
2022-08-17T19:34:39.173Z,100.00
2022-08-17T19:37:10.156Z,100.00
2022-08-17T19:39:49.094Z,100.00
2022-08-17T19:42:47.579Z,100.00
2022-08-17T19:45:35.067Z,100.00
2022-08-17T19:48:20.691Z,100.00
2022-08-17T19:50:48.415Z,100.00
2022-08-17T19:54:03.888Z,100.00
2022-08-17T19:57:04.141Z,100.00
2022-08-17T20:00:18.835Z,100.00
2022-08-17T20:03:22.137Z,100.00
2022-08-17T20:06:12.041Z,100.00
2022-08-17T20:08:59.287Z,100.00
2022-08-17T20:11:38.511Z,100.00
2022-08-17T20:14:13.291Z,100.00
2022-08-17T20:16:40.109Z,100.00
2022-08-17T20:19:16.501Z,100.00
2022-08-17T20:21:56.249Z,100.00
2022-08-17T20:24:28.147Z,100.00
2022-08-17T20:27:11.825Z,100.00
2022-08-17T20:30:03.892Z,100.00
2022-08-17T20:32:36.681Z,100.00
2022-08-17T20:35:23.900Z,100.00
2022-08-17T20:38:13.584Z,100.00
2022-08-17T20:41:03.890Z,100.00
2022-08-17T20:43:33.589Z,100.00
2022-08-17T20:46:03.318Z,100.00
2022-08-17T20:48:38.497Z,100.00
2022-08-17T20:51:28.668Z,100.00
2022-08-17T20:53:55.684Z,100.00
2022-08-17T20:56:44.667Z,100.00
2022-08-17T20:59:20.568Z,100.00
2022-08-17T21:02:03.938Z,100.00
2022-08-17T21:04:54.519Z,100.00
2022-08-17T21:07:42.887Z,100.00
2022-08-17T21:10:36.734Z,100.00
2022-08-17T21:13:15.745Z,100.00
2022-08-17T21:16:01.351Z,100.00
2022-08-17T21:18:40.784Z,100.00
2022-08-17T21:21:46.595Z,100.00
2022-08-17T21:24:17.880Z,100.00
2022-08-17T21:27:00.251Z,100.00
2022-08-17T21:29:32.782Z,100.00
2022-08-17T21:32:03.933Z,100.00
2022-08-17T21:34:33.019Z,100.00
2022-08-17T21:37:25.147Z,100.00
2022-08-17T21:40:18.263Z,100.00
2022-08-17T21:42:53.031Z,100.00
2022-08-17T21:45:22.941Z,100.00
2022-08-17T21:48:06.792Z,100.00
2022-08-17T21:50:34.434Z,100.00
2022-08-17T21:53:03.101Z,100.00
2022-08-17T21:55:32.581Z,100.00
2022-08-17T21:58:14.917Z,100.00
2022-08-17T22:00:44.723Z,100.00
2022-08-17T22:03:24.357Z,100.00
2022-08-17T22:05:51.571Z,100.00
2022-08-17T22:08:25.158Z,100.00
2022-08-17T22:11:03.510Z,100.00
2022-08-17T22:13:30.302Z,100.00
2022-08-17T22:16:28.098Z,100.00
2022-08-17T22:18:58.405Z,100.00
2022-08-17T22:21:25.576Z,100.00
2022-08-17T22:24:15.373Z,100.00
2022-08-17T22:27:00.337Z,100.00
2022-08-17T22:29:58.196Z,100.00
2022-08-17T22:32:40.042Z,100.00
2022-08-17T22:35:32.890Z,100.00
2022-08-17T22:38:25.680Z,100.00
2022-08-17T22:40:57.033Z,100.00
2022-08-17T22:43:28.853Z,100.00
2022-08-17T22:45:59.219Z,100.00
2022-08-17T22:48:28.475Z,100.00
2022-08-17T22:51:13.683Z,100.00
2022-08-17T22:54:13.462Z,100.00
2022-08-17T22:57:26.483Z,100.00
2022-08-17T22:59:55.733Z,100.00
2022-08-17T23:02:32.009Z,100.00
2022-08-17T23:05:12.930Z,100.00
2022-08-17T23:07:40.571Z,100.00
2022-08-17T23:10:10.101Z,100.00
2022-08-17T23:12:39.909Z,100.00
2022-08-17T23:15:14.405Z,100.00
2022-08-17T23:17:42.178Z,100.00
2022-08-17T23:20:14.265Z,100.00
2022-08-17T23:22:51.081Z,100.00
2022-08-17T23:25:30.741Z,100.00
2022-08-17T23:28:01.261Z,100.00
2022-08-17T23:30:30.368Z,100.00
2022-08-17T23:33:02.496Z,100.00
2022-08-17T23:35:39.771Z,100.00
2022-08-17T23:38:11.322Z,100.00
2022-08-17T23:40:39.707Z,100.00
2022-08-17T23:43:17.393Z,100.00
2022-08-17T23:45:54.165Z,100.00
2022-08-17T23:48:36.089Z,100.00
2022-08-17T23:51:25.897Z,100.00
2022-08-17T23:53:58.213Z,100.00
2022-08-17T23:56:27.925Z,100.00
2022-08-17T23:58:55.710Z,100.00
